createdAt,value
2018-12-09T00:02:03.490Z,1.90
2018-12-09T00:04:34.151Z,2.00
2018-12-09T00:07:04.820Z,1.42
2018-12-09T00:09:33.571Z,1.82
2018-12-09T00:12:02.275Z,1.90
2018-12-09T00:14:31.056Z,1.60
2018-12-09T00:16:59.811Z,1.50
2018-12-09T00:19:28.483Z,1.30
2018-12-09T00:21:57.687Z,1.30
2018-12-09T00:24:26.432Z,1.10
2018-12-09T00:26:55.169Z,1.23
2018-12-09T00:29:23.910Z,1.00
2018-12-09T00:31:52.665Z,0.90
2018-12-09T00:34:21.355Z,1.60
2018-12-09T00:36:50.209Z,1.00
2018-12-09T00:39:18.875Z,0.90
2018-12-09T00:41:47.655Z,1.20
2018-12-09T00:44:17.271Z,1.30
2018-12-09T00:46:45.969Z,1.67
2018-12-09T00:49:14.730Z,1.40
2018-12-09T00:51:43.474Z,1.40
2018-12-09T00:54:12.299Z,1.45
2018-12-09T00:56:41.031Z,1.60
2018-12-09T00:59:09.778Z,1.47
2018-12-09T01:01:38.532Z,1.40
2018-12-09T01:04:07.315Z,1.50
2018-12-09T01:06:36.487Z,2.10
2018-12-09T01:09:05.917Z,1.50
2018-12-09T01:11:34.674Z,1.70
2018-12-09T01:14:03.454Z,2.00
2018-12-09T01:16:32.215Z,1.77
2018-12-09T01:19:00.890Z,1.90
2018-12-09T01:21:29.654Z,1.90
2018-12-09T01:23:58.433Z,2.10
2018-12-09T01:26:27.544Z,1.98
2018-12-09T01:28:56.326Z,2.07
2018-12-09T01:31:25.035Z,2.43
2018-12-09T01:33:53.954Z,2.13
2018-12-09T01:36:22.940Z,2.10
2018-12-09T01:38:51.754Z,2.42
2018-12-09T01:41:20.553Z,2.20
2018-12-09T01:43:49.303Z,2.30
2018-12-09T01:46:18.113Z,1.97
2018-12-09T01:48:47.131Z,2.77
2018-12-09T01:51:15.918Z,2.10
2018-12-09T01:54:11.530Z,2.30
2018-12-09T01:56:40.320Z,2.40
2018-12-09T01:59:09.123Z,2.00
2018-12-09T02:01:37.982Z,2.45
2018-12-09T02:04:07.029Z,2.50
2018-12-09T02:06:36.115Z,2.30
2018-12-09T02:09:07.455Z,2.60
2018-12-09T02:11:36.345Z,2.72
2018-12-09T02:14:05.242Z,2.60
2018-12-09T02:16:34.495Z,2.58
2018-12-09T02:19:16.044Z,3.00
2018-12-09T02:21:45.189Z,2.90
2018-12-09T02:24:14.073Z,3.10
2018-12-09T02:26:42.820Z,3.42
2018-12-09T02:29:11.619Z,3.40
2018-12-09T02:31:40.431Z,2.50
2018-12-09T02:34:09.284Z,2.47
2018-12-09T02:36:38.135Z,2.65
2018-12-09T02:39:09.441Z,2.70
2018-12-09T02:41:38.242Z,2.27
2018-12-09T02:44:07.022Z,3.27
2018-12-09T02:46:36.183Z,2.62
2018-12-09T02:49:04.934Z,3.02
2018-12-09T02:51:33.783Z,2.52
2018-12-09T02:54:02.509Z,2.50
2018-12-09T02:56:31.327Z,2.70
2018-12-09T02:59:00.106Z,2.40
2018-12-09T03:01:28.896Z,2.08
2018-12-09T03:03:57.622Z,1.72
2018-12-09T03:06:26.355Z,1.98
2018-12-09T03:08:55.360Z,1.90
2018-12-09T03:11:24.165Z,2.20
2018-12-09T03:13:52.955Z,1.90
2018-12-09T03:16:21.691Z,2.60
2018-12-09T03:18:50.373Z,2.20
2018-12-09T03:21:19.226Z,2.12
2018-12-09T03:23:48.971Z,2.02
2018-12-09T03:26:17.775Z,2.50
2018-12-09T03:28:47.700Z,2.10
2018-12-09T03:31:16.493Z,2.02
2018-12-09T03:33:45.249Z,2.70
2018-12-09T03:36:14.029Z,2.70
2018-12-09T03:38:42.780Z,2.35
2018-12-09T03:41:11.567Z,2.60
2018-12-09T03:43:40.296Z,2.77
2018-12-09T03:46:09.064Z,2.70
2018-12-09T03:48:37.866Z,2.47
2018-12-09T03:51:06.674Z,2.47
2018-12-09T03:53:36.585Z,2.60
2018-12-09T03:56:05.403Z,2.80
2018-12-09T03:58:34.187Z,2.43
2018-12-09T04:01:02.917Z,2.47
2018-12-09T04:03:31.697Z,2.80
2018-12-09T04:06:00.430Z,3.22
2018-12-09T04:08:29.123Z,3.45
2018-12-09T04:10:57.904Z,3.53
2018-12-09T04:13:26.631Z,3.83
2018-12-09T04:15:55.786Z,3.55
2018-12-09T04:18:26.442Z,3.80
2018-12-09T04:20:55.170Z,4.10
2018-12-09T04:23:23.890Z,4.25
2018-12-09T04:25:52.691Z,4.30
2018-12-09T04:28:22.545Z,4.15
2018-12-09T04:30:51.270Z,4.40
2018-12-09T04:33:20.047Z,4.50
2018-12-09T04:35:48.846Z,5.00
2018-12-09T04:38:17.951Z,5.28
2018-12-09T04:40:46.706Z,4.37
2018-12-09T04:43:15.428Z,5.25
2018-12-09T04:45:44.214Z,5.00
2018-12-09T04:48:14.079Z,5.30
2018-12-09T04:50:42.799Z,5.10
2018-12-09T04:53:11.587Z,4.67
2018-12-09T04:55:40.382Z,5.20
2018-12-09T04:58:09.127Z,4.62
2018-12-09T05:00:53.356Z,4.00
2018-12-09T05:03:22.289Z,5.03
2018-12-09T05:05:51.071Z,5.00
2018-12-09T05:08:19.861Z,4.25
2018-12-09T05:10:48.575Z,4.28
2018-12-09T05:13:17.308Z,3.45
2018-12-09T05:15:46.104Z,4.28
2018-12-09T05:18:14.896Z,3.62
2018-12-09T05:20:43.631Z,3.72
2018-12-09T05:23:12.373Z,4.10
2018-12-09T05:25:41.189Z,4.22
2018-12-09T05:28:09.971Z,3.50
2018-12-09T05:30:38.695Z,3.90
2018-12-09T05:33:07.649Z,4.15
2018-12-09T05:35:36.447Z,4.05
2018-12-09T05:38:05.226Z,4.03
2018-12-09T05:40:34.067Z,3.12
2018-12-09T05:43:02.782Z,3.40
2018-12-09T05:45:31.582Z,3.50
2018-12-09T05:48:00.387Z,4.23
2018-12-09T05:50:29.186Z,4.20
2018-12-09T05:52:57.910Z,4.17
2018-12-09T05:55:26.723Z,4.28
2018-12-09T05:57:55.466Z,3.22
2018-12-09T06:00:24.209Z,2.80
2018-12-09T06:02:56.700Z,3.42
2018-12-09T06:05:25.414Z,2.77
2018-12-09T06:07:54.300Z,1.80
2018-12-09T06:10:23.074Z,1.80
2018-12-09T06:12:51.846Z,2.10
2018-12-09T06:15:20.563Z,1.30
2018-12-09T06:17:49.350Z,1.30
2018-12-09T06:20:18.087Z,1.30
2018-12-09T06:22:46.830Z,1.52
2018-12-09T06:25:15.665Z,1.25
2018-12-09T06:27:44.494Z,1.00
2018-12-09T06:30:13.635Z,0.93
2018-12-09T06:32:43.294Z,0.90
2018-12-09T06:35:12.053Z,0.80
2018-12-09T06:37:40.910Z,0.80
2018-12-09T06:40:09.682Z,0.90
2018-12-09T06:42:38.474Z,0.80
2018-12-09T06:45:07.327Z,0.80
2018-12-09T06:47:36.074Z,0.80
2018-12-09T06:50:07.100Z,1.00
2018-12-09T06:52:35.921Z,0.90
2018-12-09T06:55:05.238Z,0.60
2018-12-09T06:57:33.992Z,0.80
2018-12-09T07:00:03.088Z,0.65
2018-12-09T07:02:31.880Z,0.90
2018-12-09T07:05:00.690Z,0.90
2018-12-09T07:07:29.527Z,0.90
2018-12-09T07:09:58.277Z,0.80
2018-12-09T07:12:27.135Z,0.90
2018-12-09T07:14:55.930Z,0.70
2018-12-09T07:17:24.599Z,0.95
2018-12-09T07:19:53.334Z,0.70
2018-12-09T07:22:22.066Z,0.80
2018-12-09T07:24:50.873Z,0.70
2018-12-09T07:27:19.670Z,1.00
2018-12-09T07:29:48.735Z,0.90
2018-12-09T07:32:17.531Z,0.80
2018-12-09T07:34:46.361Z,0.80
2018-12-09T07:37:15.078Z,0.90
2018-12-09T07:39:43.750Z,0.90
2018-12-09T07:42:12.775Z,0.90
2018-12-09T07:44:41.562Z,0.60
2018-12-09T07:47:10.210Z,0.60
2018-12-09T07:49:39.041Z,0.60
2018-12-09T07:52:07.883Z,0.60
2018-12-09T07:54:36.666Z,0.68
2018-12-09T07:57:05.374Z,0.70
2018-12-09T07:59:34.135Z,0.60
2018-12-09T08:02:02.866Z,4.67
2018-12-09T08:04:31.627Z,0.88
2018-12-09T08:07:00.291Z,0.70
2018-12-09T08:09:28.959Z,0.80
2018-12-09T08:11:57.767Z,1.00
2018-12-09T08:14:26.611Z,0.90
2018-12-09T08:16:56.368Z,1.32
2018-12-09T08:19:25.139Z,0.88
2018-12-09T08:21:53.875Z,0.80
2018-12-09T08:24:22.582Z,0.90
2018-12-09T08:26:51.336Z,0.80
2018-12-09T08:29:20.061Z,1.10
2018-12-09T08:31:48.790Z,0.90
2018-12-09T08:34:17.558Z,1.00
2018-12-09T08:36:46.279Z,0.70
2018-12-09T08:39:14.950Z,0.80
2018-12-09T08:41:43.712Z,0.80
2018-12-09T08:44:12.509Z,0.97
2018-12-09T08:46:41.300Z,0.87
2018-12-09T08:49:10.019Z,0.70
2018-12-09T08:51:38.699Z,0.70
2018-12-09T08:54:07.353Z,0.60
2018-12-09T08:56:36.994Z,0.80
2018-12-09T08:59:05.852Z,0.70
2018-12-09T09:01:34.558Z,0.70
2018-12-09T09:04:03.359Z,0.85
2018-12-09T09:06:32.166Z,1.30
2018-12-09T09:09:00.954Z,1.00
2018-12-09T09:11:29.725Z,0.90
2018-12-09T09:13:58.444Z,1.00
2018-12-09T09:16:27.133Z,1.00
2018-12-09T09:18:55.811Z,1.02
2018-12-09T09:21:24.542Z,1.20
2018-12-09T09:23:53.287Z,0.80
2018-12-09T09:26:22.030Z,2.30
2018-12-09T09:28:50.705Z,1.00
2018-12-09T09:31:19.367Z,0.90
2018-12-09T09:33:48.111Z,1.35
2018-12-09T09:36:16.828Z,0.70
2018-12-09T09:38:45.540Z,0.65
2018-12-09T09:41:14.251Z,0.90
2018-12-09T09:43:42.897Z,0.80
2018-12-09T09:46:11.883Z,0.82
2018-12-09T09:48:40.587Z,0.80
2018-12-09T09:51:09.311Z,0.80
2018-12-09T09:53:37.962Z,0.90
2018-12-09T09:56:06.700Z,0.80
2018-12-09T09:58:35.418Z,0.87
2018-12-09T10:01:04.136Z,1.00
2018-12-09T10:03:32.859Z,0.93
2018-12-09T10:06:01.514Z,1.50
2018-12-09T10:08:30.228Z,1.20
2018-12-09T10:10:58.975Z,1.32
2018-12-09T10:13:27.750Z,1.20
2018-12-09T10:15:56.482Z,1.82
2018-12-09T10:18:25.186Z,1.33
2018-12-09T10:20:53.894Z,2.70
2018-12-09T10:23:22.642Z,1.60
2018-12-09T10:25:51.382Z,1.67
2018-12-09T10:28:20.094Z,1.90
2018-12-09T10:30:48.783Z,2.55
2018-12-09T10:33:17.455Z,2.10
2018-12-09T10:35:46.142Z,2.10
2018-12-09T10:38:15.863Z,1.93
2018-12-09T10:40:44.607Z,2.00
2018-12-09T10:43:13.302Z,2.33
2018-12-09T10:45:41.967Z,1.77
2018-12-09T10:48:11.726Z,2.20
2018-12-09T10:50:40.451Z,2.23
2018-12-09T10:53:09.159Z,1.50
2018-12-09T10:55:37.930Z,1.90
2018-12-09T10:58:06.659Z,2.08
2018-12-09T11:00:42.792Z,1.80
2018-12-09T11:03:11.503Z,1.83
2018-12-09T11:05:40.169Z,2.45
2018-12-09T11:08:08.890Z,2.22
2018-12-09T11:10:37.598Z,2.00
2018-12-09T11:13:06.432Z,2.20
2018-12-09T11:15:35.175Z,2.20
2018-12-09T11:18:03.980Z,2.12
2018-12-09T11:20:32.652Z,2.50
2018-12-09T11:23:01.337Z,2.80
2018-12-09T11:25:30.079Z,2.50
2018-12-09T11:27:58.782Z,2.20
2018-12-09T11:30:27.562Z,2.00
2018-12-09T11:32:56.283Z,2.45
2018-12-09T11:35:24.939Z,2.50
2018-12-09T11:37:53.654Z,2.10
2018-12-09T11:40:22.562Z,2.60
2018-12-09T11:42:51.319Z,2.57
2018-12-09T11:45:20.130Z,2.80
2018-12-09T11:47:48.886Z,2.30
2018-12-09T11:50:17.634Z,2.70
2018-12-09T11:52:46.392Z,2.17
2018-12-09T11:55:15.110Z,2.80
2018-12-09T11:57:43.879Z,2.60
2018-12-09T12:00:13.638Z,2.55
2018-12-09T12:02:43.437Z,2.60
2018-12-09T12:05:12.178Z,2.80
2018-12-09T12:07:40.955Z,2.80
2018-12-09T12:10:09.686Z,2.62
2018-12-09T12:12:38.398Z,2.75
2018-12-09T12:15:07.194Z,2.45
2018-12-09T12:17:35.851Z,2.27
2018-12-09T12:20:04.739Z,2.52
2018-12-09T12:22:33.419Z,2.60
2018-12-09T12:25:02.103Z,2.90
2018-12-09T12:27:30.851Z,2.70
2018-12-09T12:29:59.606Z,2.33
2018-12-09T12:32:28.334Z,2.95
2018-12-09T12:34:57.010Z,3.30
2018-12-09T12:37:25.748Z,2.80
2018-12-09T12:39:54.502Z,3.87
2018-12-09T12:42:23.215Z,2.60
2018-12-09T12:44:52.285Z,2.00
2018-12-09T12:47:21.063Z,2.40
2018-12-09T12:49:49.823Z,2.60
2018-12-09T12:52:18.561Z,2.80
2018-12-09T12:54:47.310Z,2.90
2018-12-09T12:57:15.975Z,2.70
2018-12-09T12:59:44.650Z,2.40
2018-12-09T13:02:13.374Z,2.00
2018-12-09T13:04:42.106Z,2.42
2018-12-09T13:07:10.893Z,2.07
2018-12-09T13:09:39.646Z,3.23
2018-12-09T13:12:08.409Z,2.10
2018-12-09T13:14:37.090Z,2.40
2018-12-09T13:17:05.843Z,2.72
2018-12-09T13:19:34.682Z,2.58
2018-12-09T13:22:03.394Z,2.12
2018-12-09T13:24:32.071Z,2.25
2018-12-09T13:27:00.800Z,2.23
2018-12-09T13:29:29.538Z,2.40
2018-12-09T13:31:58.295Z,2.70
2018-12-09T13:34:27.060Z,2.50
2018-12-09T13:36:55.850Z,2.60
2018-12-09T13:39:24.543Z,2.50
2018-12-09T13:41:53.217Z,2.45
2018-12-09T13:44:21.971Z,2.60
2018-12-09T13:46:50.741Z,2.73
2018-12-09T13:49:19.504Z,2.13
2018-12-09T13:51:48.226Z,2.60
2018-12-09T13:54:16.983Z,2.72
2018-12-09T13:56:45.663Z,2.80
2018-12-09T13:59:14.438Z,2.10
2018-12-09T14:01:43.170Z,1.93
2018-12-09T14:04:11.920Z,2.03
2018-12-09T14:06:40.719Z,2.30
2018-12-09T14:09:09.493Z,1.90
2018-12-09T14:11:38.218Z,1.90
2018-12-09T14:14:06.979Z,1.50
2018-12-09T14:16:35.735Z,1.90
2018-12-09T14:19:04.506Z,2.60
2018-12-09T14:21:33.337Z,2.00
2018-12-09T14:24:02.079Z,1.90
2018-12-09T14:26:30.836Z,3.00
2018-12-09T14:28:59.918Z,2.43
2018-12-09T14:31:30.747Z,3.50
2018-12-09T14:33:59.423Z,2.98
2018-12-09T14:36:28.143Z,4.10
2018-12-09T14:38:57.214Z,2.40
2018-12-09T14:41:25.963Z,2.60
2018-12-09T14:43:54.643Z,3.52
2018-12-09T14:46:23.414Z,2.57
2018-12-09T14:48:52.151Z,1.72
2018-12-09T14:51:20.857Z,2.10
2018-12-09T14:53:49.502Z,2.00
2018-12-09T14:56:18.220Z,1.93
2018-12-09T14:58:46.933Z,2.10
2018-12-09T15:01:16.610Z,1.90
2018-12-09T15:03:46.286Z,1.40
2018-12-09T15:06:15.002Z,1.40
2018-12-09T15:08:43.710Z,1.30
2018-12-09T15:11:12.486Z,1.50
2018-12-09T15:13:41.279Z,2.40
2018-12-09T15:16:10.002Z,1.40
2018-12-09T15:18:38.743Z,1.57
2018-12-09T15:21:07.507Z,1.90
2018-12-09T15:23:36.210Z,2.20
2018-12-09T15:26:04.959Z,1.90
2018-12-09T15:28:33.716Z,2.30
2018-12-09T15:31:02.435Z,1.80
2018-12-09T15:33:31.123Z,2.37
2018-12-09T15:35:59.790Z,2.40
2018-12-09T15:38:28.528Z,2.98
2018-12-09T15:40:57.211Z,1.90
2018-12-09T15:43:25.942Z,2.93
2018-12-09T15:45:55.415Z,2.52
2018-12-09T15:48:24.163Z,1.95
2018-12-09T15:50:52.938Z,1.90
2018-12-09T15:53:21.620Z,2.10
2018-12-09T15:55:50.331Z,2.08
2018-12-09T15:58:19.014Z,1.50
2018-12-09T16:00:53.056Z,2.10
2018-12-09T16:03:21.720Z,1.80
2018-12-09T16:05:50.378Z,2.00
2018-12-09T16:08:19.151Z,2.70
2018-12-09T16:10:48.515Z,3.28
2018-12-09T16:13:17.247Z,4.05
2018-12-09T16:15:45.902Z,3.40
2018-12-09T16:18:14.667Z,2.77
2018-12-09T16:20:43.419Z,3.57
2018-12-09T16:23:12.103Z,5.85
2018-12-09T16:25:40.831Z,3.90
2018-12-09T16:28:09.580Z,2.92
2018-12-09T16:30:38.331Z,5.00
2018-12-09T16:33:08.186Z,3.40
2018-12-09T16:35:36.919Z,4.70
2018-12-09T16:38:05.264Z,8.58
2018-12-09T16:40:34.003Z,8.78
2018-12-09T16:43:02.686Z,9.73
2018-12-09T16:45:31.416Z,7.30
2018-12-09T16:48:00.223Z,4.37
2018-12-09T16:50:28.911Z,3.87
2018-12-09T16:52:57.661Z,4.90
2018-12-09T16:55:27.247Z,3.47
2018-12-09T16:57:56.025Z,2.97
2018-12-09T17:00:24.775Z,4.47
2018-12-09T17:02:53.480Z,6.67
2018-12-09T17:05:22.324Z,6.70
2018-12-09T17:07:51.027Z,10.13
2018-12-09T17:10:19.748Z,7.87
2018-12-09T17:12:48.478Z,5.47
2018-12-09T17:15:17.251Z,9.27
2018-12-09T17:17:46.643Z,8.55
2018-12-09T17:20:15.399Z,8.20
2018-12-09T17:22:44.111Z,6.58
2018-12-09T17:25:12.835Z,4.50
2018-12-09T17:27:41.556Z,4.17
2018-12-09T17:30:10.398Z,5.53
2018-12-09T17:32:39.137Z,4.73
2018-12-09T17:35:07.927Z,5.30
2018-12-09T17:37:37.671Z,4.95
2018-12-09T17:40:08.075Z,5.10
2018-12-09T17:42:37.755Z,3.98
2018-12-09T17:45:06.847Z,3.70
2018-12-09T17:47:35.535Z,4.12
2018-12-09T17:50:04.324Z,5.22
2018-12-09T17:52:33.074Z,4.00
2018-12-09T17:55:02.014Z,4.07
2018-12-09T17:57:30.762Z,4.05
2018-12-09T17:59:59.566Z,4.40
2018-12-09T18:02:29.071Z,4.60
2018-12-09T18:04:58.147Z,3.70
2018-12-09T18:07:26.814Z,3.42
2018-12-09T18:09:55.508Z,3.43
2018-12-09T18:12:24.275Z,3.20
2018-12-09T18:14:52.955Z,4.20
2018-12-09T18:17:21.659Z,3.80
2018-12-09T18:19:50.351Z,3.90
2018-12-09T18:22:19.014Z,3.90
2018-12-09T18:24:47.723Z,3.87
2018-12-09T18:27:17.542Z,4.37
2018-12-09T18:29:46.231Z,4.57
2018-12-09T18:32:14.962Z,4.30
2018-12-09T18:34:43.711Z,4.95
2018-12-09T18:37:12.441Z,4.30
2018-12-09T18:39:41.370Z,4.43
2018-12-09T18:42:10.107Z,4.90
2018-12-09T18:44:38.902Z,3.77
2018-12-09T18:47:07.654Z,4.40
2018-12-09T18:49:36.862Z,4.45
2018-12-09T18:52:05.583Z,4.00
2018-12-09T18:54:34.271Z,4.73
2018-12-09T18:57:03.079Z,5.10
2018-12-09T18:59:31.859Z,4.10
2018-12-09T19:02:00.527Z,5.10
2018-12-09T19:04:29.253Z,5.10
2018-12-09T19:06:57.987Z,5.80
2018-12-09T19:09:26.726Z,5.50
2018-12-09T19:11:56.491Z,5.08
2018-12-09T19:14:25.198Z,5.67
2018-12-09T19:16:53.963Z,5.20
2018-12-09T19:19:22.629Z,4.62
2018-12-09T19:21:51.354Z,4.20
2018-12-09T19:24:20.119Z,4.80
2018-12-09T19:26:48.876Z,4.40
2018-12-09T19:29:17.553Z,4.10
2018-12-09T19:31:46.247Z,4.10
2018-12-09T19:34:15.651Z,3.85
2018-12-09T19:36:44.411Z,4.67
2018-12-09T19:39:13.150Z,4.17
2018-12-09T19:41:43.854Z,5.80
2018-12-09T19:44:12.615Z,4.03
2018-12-09T19:46:41.383Z,4.20
2018-12-09T19:49:10.146Z,2.98
2018-12-09T19:51:38.844Z,3.10
2018-12-09T19:54:07.707Z,3.90
2018-12-09T19:56:36.448Z,4.30
2018-12-09T19:59:05.175Z,3.17
2018-12-09T20:01:33.964Z,3.65
2018-12-09T20:04:02.678Z,4.90
2018-12-09T20:06:31.412Z,4.33
2018-12-09T20:09:00.155Z,4.97
2018-12-09T20:11:28.850Z,5.10
2018-12-09T20:13:57.622Z,5.10
2018-12-09T20:16:26.391Z,4.60
2018-12-09T20:18:55.113Z,4.73
2018-12-09T20:21:23.867Z,5.53
2018-12-09T20:23:52.635Z,3.98
2018-12-09T20:26:21.551Z,4.25
2018-12-09T20:28:50.267Z,5.00
2018-12-09T20:31:19.046Z,3.97
2018-12-09T20:33:47.783Z,4.33
2018-12-09T20:36:16.538Z,4.20
2018-12-09T20:38:45.323Z,4.20
2018-12-09T20:41:14.096Z,3.85
2018-12-09T20:43:42.964Z,3.20
2018-12-09T20:46:11.731Z,4.23
2018-12-09T20:48:40.501Z,3.80
2018-12-09T20:51:09.279Z,3.95
2018-12-09T20:53:38.063Z,3.25
2018-12-09T20:56:06.829Z,3.02
2018-12-09T20:58:35.608Z,3.58
2018-12-09T21:01:04.375Z,3.37
2018-12-09T21:03:33.246Z,3.63
2018-12-09T21:06:02.957Z,3.70
2018-12-09T21:08:31.721Z,3.60
2018-12-09T21:11:00.479Z,5.10
2018-12-09T21:13:29.252Z,3.80
2018-12-09T21:15:57.996Z,4.10
2018-12-09T21:18:26.825Z,3.80
2018-12-09T21:20:55.661Z,4.67
2018-12-09T21:23:24.507Z,4.60
2018-12-09T21:25:53.227Z,5.40
2018-12-09T21:28:21.956Z,3.87
2018-12-09T21:30:50.761Z,4.45
2018-12-09T21:33:19.533Z,3.70
2018-12-09T21:35:48.286Z,4.40
2018-12-09T21:38:17.040Z,4.00
2018-12-09T21:40:45.754Z,3.77
2018-12-09T21:43:14.531Z,4.00
2018-12-09T21:45:43.270Z,3.60
2018-12-09T21:48:13.099Z,3.75
2018-12-09T21:50:41.828Z,3.30
2018-12-09T21:53:10.624Z,3.77
2018-12-09T21:55:39.329Z,3.90
2018-12-09T21:58:08.091Z,4.30
2018-12-09T22:00:36.822Z,3.90
2018-12-09T22:03:05.620Z,4.20
2018-12-09T22:05:34.376Z,3.80
2018-12-09T22:08:03.138Z,3.85
2018-12-09T22:10:31.911Z,3.77
2018-12-09T22:13:00.731Z,3.73
2018-12-09T22:15:29.782Z,4.33
2018-12-09T22:17:58.594Z,3.80
2018-12-09T22:20:27.384Z,3.90
2018-12-09T22:22:56.115Z,3.90
2018-12-09T22:25:24.879Z,3.25
2018-12-09T22:27:53.651Z,4.07
2018-12-09T22:30:22.382Z,4.30
2018-12-09T22:32:51.099Z,4.05
2018-12-09T22:35:19.847Z,4.15
2018-12-09T22:37:48.528Z,3.87
2018-12-09T22:40:17.315Z,3.87
2018-12-09T22:42:46.047Z,3.80
2018-12-09T22:45:14.839Z,3.87
2018-12-09T22:47:43.567Z,4.00
2018-12-09T22:50:12.360Z,4.03
2018-12-09T22:52:41.100Z,3.80
2018-12-09T22:55:09.814Z,4.47
2018-12-09T22:57:38.543Z,4.30
2018-12-09T23:00:14.324Z,4.67
2018-12-09T23:02:49.552Z,3.95
2018-12-09T23:05:18.278Z,4.20
2018-12-09T23:07:52.335Z,3.70
2018-12-09T23:10:21.175Z,3.37
2018-12-09T23:12:49.927Z,2.90
2018-12-09T23:15:18.647Z,3.55
2018-12-09T23:17:47.366Z,3.52
2018-12-09T23:20:16.106Z,3.65
2018-12-09T23:22:44.870Z,3.57
2018-12-09T23:25:13.590Z,4.12
2018-12-09T23:27:42.246Z,3.62
2018-12-09T23:30:11.030Z,3.50
2018-12-09T23:32:39.726Z,3.70
2018-12-09T23:35:08.451Z,2.80
2018-12-09T23:37:37.174Z,3.08
2018-12-09T23:40:07.755Z,3.00
2018-12-09T23:42:36.494Z,3.10
2018-12-09T23:45:05.954Z,3.27
2018-12-09T23:47:34.797Z,2.80
2018-12-09T23:50:03.746Z,3.30
2018-12-09T23:52:32.487Z,3.70
2018-12-09T23:55:01.508Z,3.10
2018-12-09T23:57:30.314Z,2.90
2018-12-09T23:59:59.046Z,2.70
